Time;durP1;ratioP1;P1;durP2;ratioP2;P2;SDS_P1;SDS_P2;PMS_P1;PMS_P2;Temp;Humidity;BMP_temperature;BMP_pressure;BME280_temperature;BME280_humidity;BME280_pressure;Samples;Min_cycle;Max_cycle;Signal;HPM_P1;HPM_P2
2023/06/04 00:01:04;;;;;;;5.03;1.92;;;;;;;25.92;34.39;99933.37;4259074;33;35210;-64
2023/06/04 00:03:43;;;;;;;6.55;2.20;;;;;;;25.92;34.46;99934.22;4259826;33;34367;-65
2023/06/04 00:06:11;;;;;;;4.68;1.87;;;;;;;25.92;34.46;99936.12;4260837;33;34654;-65
2023/06/04 00:08:38;;;;;;;3.42;1.80;;;;;;;25.92;34.37;99939.69;4260955;33;34904;-66
2023/06/04 00:11:06;;;;;;;4.53;2.00;;;;;;;25.91;34.38;99934.47;4260771;33;34164;-64
2023/06/04 00:13:34;;;;;;;3.90;2.03;;;;;;;25.91;34.29;99938.03;4260645;33;34316;-65
2023/06/04 00:16:02;;;;;;;5.90;2.20;;;;;;;25.91;34.25;99935.28;4260892;33;33958;-65
2023/06/04 00:18:30;;;;;;;3.67;2.00;;;;;;;25.91;34.18;99937.19;4260732;33;34154;-65
2023/06/04 00:20:57;;;;;;;4.72;2.00;;;;;;;25.90;34.18;99936.38;4260787;33;33962;-65
2023/06/04 00:23:25;;;;;;;4.53;2.30;;;;;;;25.90;34.21;99938.28;4260796;33;34417;-65
2023/06/04 00:25:52;;;;;;;3.83;1.98;;;;;;;25.88;34.14;99935.78;4260698;33;34671;-65
2023/06/04 00:28:21;;;;;;;3.62;1.70;;;;;;;25.90;34.09;99930.06;4261113;33;33735;-65
2023/06/04 00:30:49;;;;;;;4.12;2.12;;;;;;;25.89;34.07;99917.47;4261171;33;33723;-64
2023/06/04 00:33:16;;;;;;;4.53;2.12;;;;;;;25.88;34.07;99913.91;4260608;33;34498;-65
2023/06/04 00:35:44;;;;;;;4.95;2.15;;;;;;;25.88;34.05;99916.66;4260885;33;33805;-65
2023/06/04 00:38:12;;;;;;;5.12;2.28;;;;;;;25.87;34.04;99920.44;4260730;33;34589;-65
2023/06/04 00:40:40;;;;;;;3.53;2.08;;;;;;;25.88;34.02;99921.25;4260659;33;33834;-64
2023/06/04 00:43:08;;;;;;;2.75;1.60;;;;;;;25.88;34.00;99924.00;4260685;33;33468;-65
2023/06/04 00:45:36;;;;;;;3.05;1.90;;;;;;;25.87;34.05;99927.81;4260704;33;34104;-65
2023/06/04 00:48:04;;;;;;;3.97;2.15;;;;;;;25.86;34.17;99928.88;4260622;33;34582;-65
2023/06/04 00:50:33;;;;;;;4.00;1.87;;;;;;;25.85;34.25;99932.69;4260578;33;34178;-65
2023/06/04 00:53:00;;;;;;;4.07;1.80;;;;;;;25.85;34.22;99932.69;4260756;33;34064;-65
2023/06/04 00:55:28;;;;;;;3.42;2.00;;;;;;;25.84;34.20;99940.06;4260492;33;34393;-66
2023/06/04 00:57:55;;;;;;;3.37;1.80;;;;;;;25.84;34.15;99934.59;4260580;33;34847;-64
2023/06/04 01:00:23;;;;;;;5.40;2.03;;;;;;;25.84;34.15;99931.03;4260607;33;34845;-63
2023/06/04 01:02:53;;;;;;;4.53;2.00;;;;;;;25.83;34.19;99932.91;4260495;33;33308;-64
2023/06/04 01:05:23;;;;;;;6.78;1.87;;;;;;;25.82;34.18;99925.78;4259466;33;33920;-65
2023/06/04 01:07:51;;;;;;;4.47;2.33;;;;;;;25.84;34.17;99917.37;4267101;33;33870;-64
2023/06/04 01:10:19;;;;;;;6.30;2.20;;;;;;;25.82;34.17;99919.50;4247691;33;34085;-64
2023/06/04 01:12:47;;;;;;;3.78;1.95;;;;;;;25.82;34.14;99914.03;4260557;33;34297;-65
2023/06/04 01:15:15;;;;;;;4.43;2.33;;;;;;;25.82;34.18;99911.28;4260147;33;33632;-65
2023/06/04 01:17:46;;;;;;;3.67;1.90;;;;;;;25.80;34.21;99914.28;4260593;33;33834;-64
2023/06/04 01:20:26;;;;;;;4.00;1.92;;;;;;;25.80;34.24;99918.91;4271013;33;34884;-65
2023/06/04 01:22:54;;;;;;;3.47;2.00;;;;;;;25.81;34.28;99923.31;4260523;33;33617;-64
2023/06/04 01:25:31;;;;;;;6.25;2.12;;;;;;;25.82;34.31;99914.03;4260430;33;33948;-63
2023/06/04 01:28:00;;;;;;;6.03;2.08;;;;;;;25.79;34.35;99926.28;4247506;33;33873;-64
2023/06/04 01:30:32;;;;;;;3.37;1.80;;;;;;;25.80;34.31;99925.22;4247679;33;34380;-65
2023/06/04 01:33:00;;;;;;;3.47;1.98;;;;;;;25.80;34.30;99927.13;4259323;33;33558;-65
2023/06/04 01:35:28;;;;;;;4.00;1.67;;;;;;;25.79;34.24;99931.75;4260387;33;33770;-63
2023/06/04 01:37:55;;;;;;;3.20;1.67;;;;;;;25.79;34.31;99933.66;4260556;33;34124;-64
2023/06/04 01:40:24;;;;;;;4.32;2.20;;;;;;;25.78;34.31;99932.78;4260481;33;34042;-64
2023/06/04 01:42:52;;;;;;;4.68;1.98;;;;;;;25.78;34.18;99932.78;4260125;33;33378;-64
2023/06/04 01:45:23;;;;;;;4.28;2.00;;;;;;;25.78;34.17;99927.34;4260421;33;33817;-64
2023/06/04 01:47:51;;;;;;;4.37;1.80;;;;;;;25.77;34.19;99933.03;4260296;33;34480;-64
2023/06/04 01:50:19;;;;;;;3.22;1.80;;;;;;;25.76;34.22;99926.75;4260251;33;34055;-65
2023/06/04 01:52:46;;;;;;;3.35;1.92;;;;;;;25.75;34.24;99919.59;4260355;33;34131;-64
2023/06/04 01:55:15;;;;;;;4.53;2.17;;;;;;;25.76;34.16;99917.72;4259014;33;33853;-65
2023/06/04 01:57:43;;;;;;;4.00;1.90;;;;;;;25.75;34.16;99921.50;4259034;33;34952;-65
2023/06/04 02:00:12;;;;;;;6.20;2.00;;;;;;;25.75;34.15;99916.87;4260582;33;34324;-64
2023/06/04 02:02:43;;;;;;;4.55;2.00;;;;;;;25.75;34.13;99924.25;4259981;33;34458;-65
2023/06/04 02:05:10;;;;;;;3.45;1.87;;;;;;;25.74;34.18;99919.81;4270794;33;33974;-64
2023/06/04 02:07:39;;;;;;;3.78;1.95;;;;;;;25.74;34.09;99922.56;4265565;33;33734;-65
2023/06/04 02:10:09;;;;;;;3.08;1.80;;;;;;;25.74;34.10;99928.00;4247225;33;34915;-64
2023/06/04 02:12:41;;;;;;;4.45;1.80;;;;;;;25.74;34.15;99936.22;4259293;33;33362;-65
2023/06/04 02:15:10;;;;;;;4.55;2.12;;;;;;;25.72;34.16;99933.72;4247611;33;34725;-64
2023/06/04 02:17:39;;;;;;;5.70;2.22;;;;;;;25.72;34.19;99931.00;4260154;33;34692;-64
2023/06/04 02:20:09;;;;;;;3.47;1.75;;;;;;;25.73;34.14;99932.66;4260216;33;34878;-65
2023/06/04 02:22:37;;;;;;;3.28;1.90;;;;;;;25.73;34.16;99931.81;4259953;33;33370;-65
2023/06/04 02:25:05;;;;;;;4.15;2.15;;;;;;;25.73;34.10;99932.66;4259963;33;34177;-63
2023/06/04 02:27:32;;;;;;;3.60;2.10;;;;;;;25.71;34.20;99934.81;4259664;33;34006;-64
2023/06/04 02:30:02;;;;;;;4.03;2.00;;;;;;;25.72;34.24;99933.72;4259903;33;35233;-64
2023/06/04 02:32:29;;;;;;;4.68;1.85;;;;;;;25.70;34.32;99935.88;4260108;33;33092;-65
2023/06/04 02:34:58;;;;;;;4.20;1.80;;;;;;;25.69;34.33;99937.78;4260014;33;33967;-64
2023/06/04 02:37:26;;;;;;;3.70;1.80;;;;;;;25.70;34.26;99930.41;4259945;33;33851;-64
2023/06/04 02:39:53;;;;;;;5.07;1.90;;;;;;;25.70;34.27;99927.69;4260055;33;34075;-65
2023/06/04 02:42:21;;;;;;;3.90;1.87;;;;;;;25.70;34.19;99927.69;4260012;33;33641;-64
2023/06/04 02:44:49;;;;;;;4.60;1.95;;;;;;;25.70;34.12;99931.25;4259818;33;33432;-65
2023/06/04 02:47:19;;;;;;;4.57;1.90;;;;;;;25.69;34.11;99918.66;4260022;33;34857;-65
2023/06/04 02:49:46;;;;;;;4.40;2.15;;;;;;;25.69;34.08;99924.13;4259914;33;34189;-64
2023/06/04 02:52:14;;;;;;;2.53;1.67;;;;;;;25.69;34.08;99926.84;4260077;33;34085;-64
2023/06/04 02:54:42;;;;;;;5.32;2.20;;;;;;;25.68;34.08;99930.63;4259888;33;33638;-65
2023/06/04 02:57:09;;;;;;;4.05;1.80;;;;;;;25.69;34.10;99929.59;4259860;33;33738;-65
2023/06/04 02:59:37;;;;;;;7.70;2.05;;;;;;;25.67;34.06;99925.41;4259770;33;34307;-64
2023/06/04 03:02:05;;;;;;;3.67;1.80;;;;;;;25.67;34.07;99931.72;4260155;33;33526;-65
2023/06/04 03:04:34;;;;;;;4.12;2.05;;;;;;;25.66;34.09;99930.06;4259794;33;33807;-64
2023/06/04 03:07:02;;;;;;;3.70;1.85;;;;;;;25.67;34.17;99934.44;4261299;33;34192;-65
2023/06/04 03:09:33;;;;;;;4.35;2.05;;;;;;;25.66;34.12;99932.78;4259696;33;34271;-65
2023/06/04 03:12:03;;;;;;;3.47;1.98;;;;;;;25.65;34.21;99933.03;4259752;33;33663;-65
2023/06/04 03:14:32;;;;;;;10.60;2.60;;;;;;;25.65;34.15;99938.50;4247441;33;33804;-65
2023/06/04 03:17:07;;;;;;;3.80;1.77;;;;;;;25.65;34.10;99939.34;4259679;33;34016;-65
2023/06/04 03:19:38;;;;;;;4.57;1.75;;;;;;;25.64;34.06;99934.91;4259498;33;34135;-64
2023/06/04 03:22:06;;;;;;;3.30;1.80;;;;;;;25.65;34.04;99938.50;4259687;33;33363;-65
2023/06/04 03:24:38;;;;;;;5.20;1.98;;;;;;;25.64;34.12;99934.09;4258399;33;34011;-65
2023/06/04 03:27:07;;;;;;;3.87;1.73;;;;;;;25.64;34.13;99939.56;4270158;33;34701;-65
2023/06/04 03:29:34;;;;;;;4.00;2.25;;;;;;;25.64;34.16;99934.09;4259561;33;34020;-65
2023/06/04 03:32:03;;;;;;;4.00;2.00;;;;;;;25.64;34.10;99934.09;4259676;33;32836;-65
2023/06/04 03:34:34;;;;;;;4.25;2.05;;;;;;;25.63;34.25;99941.44;4259712;33;33998;-65
2023/06/04 03:37:02;;;;;;;4.03;1.98;;;;;;;25.64;34.37;99934.09;4259764;33;34702;-65
2023/06/04 03:39:31;;;;;;;4.45;2.08;;;;;;;25.63;34.41;99938.72;4261298;33;33967;-65
2023/06/04 03:41:59;;;;;;;3.80;1.92;;;;;;;25.64;34.42;99953.22;4261196;33;34354;-65
2023/06/04 03:44:27;;;;;;;5.25;1.87;;;;;;;25.63;34.43;99948.81;4260091;33;34654;-65
2023/06/04 03:46:55;;;;;;;2.72;1.60;;;;;;;25.63;34.42;99952.38;4260842;33;33932;-65
2023/06/04 03:49:23;;;;;;;10.23;2.62;;;;;;;25.62;34.36;99948.00;4261213;33;35086;-65
2023/06/04 03:51:52;;;;;;;5.70;1.83;;;;;;;25.63;34.31;99940.63;4261057;33;33563;-65
2023/06/04 03:54:21;;;;;;;2.40;1.60;;;;;;;25.62;34.33;99953.47;4261103;33;34047;-64
2023/06/04 03:56:49;;;;;;;4.93;2.03;;;;;;;25.63;34.26;99954.28;4261192;33;34058;-65
2023/06/04 03:59:16;;;;;;;2.95;1.70;;;;;;;25.64;34.29;99962.25;4260981;33;34827;-64
2023/06/04 04:01:45;;;;;;;4.78;1.50;;;;;;;25.62;34.31;99948.00;4261079;33;33548;-65
2023/06/04 04:04:13;;;;;;;5.55;1.73;;;;;;;25.63;34.28;99955.13;4260889;33;34630;-64
2023/06/04 04:06:41;;;;;;;3.45;1.80;;;;;;;25.62;34.27;99961.66;4260815;33;34793;-64
2023/06/04 04:09:09;;;;;;;4.60;1.83;;;;;;;25.62;34.26;99967.12;4261190;33;34686;-65
2023/06/04 04:11:37;;;;;;;3.60;1.90;;;;;;;25.61;34.30;99970.94;4261157;33;33125;-65
2023/06/04 04:14:04;;;;;;;3.97;1.87;;;;;;;25.61;34.31;99976.41;4260843;33;33962;-65
2023/06/04 04:16:32;;;;;;;3.65;1.70;;;;;;;25.61;34.36;99965.47;4261165;33;33794;-65
2023/06/04 04:19:01;;;;;;;4.70;1.80;;;;;;;25.61;34.35;99967.38;4261114;33;34391;-64
2023/06/04 04:21:29;;;;;;;3.28;1.60;;;;;;;25.60;34.36;99965.69;4261113;33;33291;-66
2023/06/04 04:23:56;;;;;;;3.53;1.70;;;;;;;25.60;34.30;99960.22;4260886;33;33956;-63
2023/06/04 04:26:27;;;;;;;2.67;1.50;;;;;;;25.60;34.35;99968.41;4255596;33;34046;-65
2023/06/04 04:28:59;;;;;;;5.25;1.77;;;;;;;25.60;34.39;99972.00;4254367;33;34082;-65
2023/06/04 04:31:28;;;;;;;2.50;1.35;;;;;;;25.61;34.40;99970.09;4245791;33;34437;-64
2023/06/04 04:33:56;;;;;;;3.37;1.73;;;;;;;25.61;34.45;99975.56;4257044;33;34112;-64
2023/06/04 04:36:23;;;;;;;3.62;1.55;;;;;;;25.60;34.52;99974.75;4260577;33;34021;-64
2023/06/04 04:38:54;;;;;;;4.55;1.83;;;;;;;25.60;34.61;99980.19;4260872;33;34040;-64
2023/06/04 04:41:22;;;;;;;4.15;1.98;;;;;;;25.59;34.60;99975.78;4261022;33;33478;-64
2023/06/04 04:43:52;;;;;;;2.92;1.80;;;;;;;25.61;34.55;99983.75;4260536;33;33928;-65
2023/06/04 04:46:20;;;;;;;6.55;1.62;;;;;;;25.59;34.62;99978.50;4249412;33;34705;-64
2023/06/04 04:48:48;;;;;;;5.80;1.83;;;;;;;25.61;34.65;99983.75;4245038;33;33850;-63
2023/06/04 04:51:15;;;;;;;7.72;1.77;;;;;;;25.60;34.62;99984.81;4246645;33;33792;-64
2023/06/04 04:53:43;;;;;;;4.07;2.10;;;;;;;25.59;34.57;99980.41;4246445;33;33684;-65
2023/06/04 04:56:11;;;;;;;15.93;2.30;;;;;;;25.58;34.52;99985.06;4246354;33;33536;-65
2023/06/04 04:58:39;;;;;;;3.87;2.03;;;;;;;25.58;34.57;99985.06;4246652;33;34562;-66
2023/06/04 05:01:09;;;;;;;4.45;2.03;;;;;;;25.58;34.52;99985.06;4246382;33;33556;-65
2023/06/04 05:03:37;;;;;;;6.50;2.12;;;;;;;25.58;34.39;99981.50;4246578;33;34640;-63
2023/06/04 05:06:05;;;;;;;8.07;1.95;;;;;;;25.58;34.42;99987.78;4246556;33;33922;-65
2023/06/04 05:08:33;;;;;;;2.58;1.55;;;;;;;25.58;34.46;99990.53;4246666;33;33927;-65
2023/06/04 05:11:00;;;;;;;7.00;2.17;;;;;;;25.59;34.48;99988.63;4246278;33;33422;-64
2023/06/04 05:13:28;;;;;;;5.30;2.12;;;;;;;25.58;34.54;99987.78;4246654;33;33902;-65
2023/06/04 05:15:56;;;;;;;4.10;1.67;;;;;;;25.58;34.57;99990.53;4246724;33;33525;-65
2023/06/04 05:18:28;;;;;;;3.78;1.62;;;;;;;25.58;34.57;99993.25;4246455;33;34772;-64
2023/06/04 05:20:57;;;;;;;4.30;1.67;;;;;;;25.59;34.60;99994.09;4245643;33;33394;-65
2023/06/04 05:23:26;;;;;;;3.25;1.67;;;;;;;25.58;34.57;99998.72;4259557;33;33835;-64
2023/06/04 05:25:54;;;;;;;3.67;1.73;;;;;;;25.58;34.64;100004.19;4255578;33;34807;-65
2023/06/04 05:28:24;;;;;;;7.68;1.87;;;;;;;25.58;34.62;100009.66;4248466;33;34853;-65
2023/06/04 05:30:58;;;;;;;3.95;1.85;;;;;;;25.59;34.63;100005.00;4250744;33;33497;-65
2023/06/04 05:33:27;;;;;;;3.47;1.70;;;;;;;25.58;34.65;100004.19;4259656;33;33499;-65
2023/06/04 05:35:57;;;;;;;4.30;1.87;;;;;;;25.59;34.63;100005.00;4260747;33;34511;-65
2023/06/04 05:38:25;;;;;;;6.15;2.05;;;;;;;25.57;34.66;100002.53;4260564;33;33640;-64
2023/06/04 05:40:54;;;;;;;7.70;1.80;;;;;;;25.57;34.69;100005.25;4260275;33;34463;-65
2023/06/04 05:43:22;;;;;;;4.12;1.98;;;;;;;25.58;34.68;100003.34;4242555;33;33821;-64
2023/06/04 05:45:51;;;;;;;5.37;1.98;;;;;;;25.57;34.63;100008.00;4262088;33;34749;-65
2023/06/04 05:48:19;;;;;;;4.12;1.92;;;;;;;25.57;34.59;100008.00;4262431;33;34275;-64
2023/06/04 05:50:47;;;;;;;5.22;1.92;;;;;;;25.58;34.60;100012.38;4253374;33;33624;-65
2023/06/04 05:53:15;;;;;;;5.57;1.70;;;;;;;25.58;34.61;100006.09;4256808;33;34668;-65
2023/06/04 05:55:43;;;;;;;4.47;1.55;;;;;;;25.59;34.60;100005.84;4254190;33;33915;-63
2023/06/04 05:58:10;;;;;;;3.00;1.50;;;;;;;25.59;34.60;100007.75;4252504;33;33775;-65
2023/06/04 06:00:38;;;;;;;4.45;1.90;;;;;;;25.58;34.60;100001.44;4252251;33;34136;-65
2023/06/04 06:03:06;;;;;;;2.78;1.73;;;;;;;25.58;34.63;100006.91;4252653;33;33736;-65
2023/06/04 06:05:35;;;;;;;5.78;1.90;;;;;;;25.59;34.60;100005.84;4252407;33;35365;-63
2023/06/04 06:08:03;;;;;;;3.92;1.90;;;;;;;25.59;34.67;99999.53;4252162;33;34340;-65
2023/06/04 06:10:31;;;;;;;4.10;1.67;;;;;;;25.60;34.69;99998.47;4252906;33;33190;-63
2023/06/04 06:13:00;;;;;;;4.40;2.05;;;;;;;25.63;34.68;100014.41;4253879;33;33399;-64
2023/06/04 06:15:28;;;;;;;5.60;2.17;;;;;;;25.60;34.65;100013.00;4252550;33;34630;-69
2023/06/04 06:17:56;;;;;;;5.80;1.65;;;;;;;25.61;34.65;100020.13;4251171;33;34844;-71
2023/06/04 06:20:24;;;;;;;2.80;1.67;;;;;;;25.61;34.56;100035.69;4251982;33;34288;-71
2023/06/04 06:22:51;;;;;;;3.03;1.65;;;;;;;25.61;34.39;100035.69;4252181;33;33765;-67
2023/06/04 06:25:20;;;;;;;6.00;1.60;;;;;;;25.61;34.15;100031.03;4238548;33;33026;-69
2023/06/04 06:27:48;;;;;;;5.57;1.87;;;;;;;25.60;34.04;100032.12;4252948;33;33289;-70
2023/06/04 06:31:41;;;;;;;10.13;1.73;;;;;;;26.21;33.08;100030.03;4516231;31;136385;-68
2023/06/04 06:34:09;;;;;;;4.65;2.05;;;;;;;26.21;33.08;100030.03;4495710;31;33110;-65
2023/06/04 06:36:36;;;;;;;5.07;2.00;;;;;;;25.61;33.81;100039.25;4503035;31;33978;-70
2023/06/04 06:39:04;;;;;;;4.28;1.90;;;;;;;25.59;33.89;100032.34;4500931;31;34025;-66
2023/06/04 06:41:31;;;;;;;5.82;2.08;;;;;;;25.58;33.86;100036.97;4482338;31;33358;-69
2023/06/04 06:43:59;;;;;;;4.60;1.77;;;;;;;25.58;33.85;100039.69;4475552;32;33227;-69
2023/06/04 06:46:26;;;;;;;7.05;2.25;;;;;;;25.58;33.91;100039.69;4492392;31;33510;-67
2023/06/04 06:48:54;;;;;;;5.95;1.55;;;;;;;25.58;33.91;100042.44;4479089;31;32814;-65
2023/06/04 06:51:22;;;;;;;4.35;2.17;;;;;;;25.60;33.82;100047.66;4482362;32;33979;-67
2023/06/04 06:53:50;;;;;;;6.60;2.08;;;;;;;25.59;33.84;100046.81;4494277;31;34036;-70
2023/06/04 06:56:18;;;;;;;7.12;1.87;;;;;;;25.58;33.85;100052.53;4482492;31;32627;-66
2023/06/04 06:58:46;;;;;;;8.18;2.42;;;;;;;25.58;33.87;100050.63;4494882;31;33673;-66
2023/06/04 07:01:13;;;;;;;4.82;1.83;;;;;;;25.58;33.79;100055.28;4468845;32;32600;-66
2023/06/04 07:03:41;;;;;;;17.33;2.20;;;;;;;25.57;33.80;100057.16;4494730;31;32316;-68
2023/06/04 07:06:09;;;;;;;6.57;2.10;;;;;;;25.56;33.72;100060.97;4481815;32;33823;-66
2023/06/04 07:08:36;;;;;;;5.90;1.73;;;;;;;25.56;33.76;100062.88;4497765;31;33661;-69
2023/06/04 07:11:04;;;;;;;7.72;2.60;;;;;;;25.55;33.75;100064.75;4511619;31;33641;-66
2023/06/04 07:13:33;;;;;;;5.25;1.87;;;;;;;25.55;33.73;100056.56;4489040;31;32748;-67
2023/06/04 07:16:01;;;;;;;5.20;1.83;;;;;;;25.56;33.71;100051.94;4484444;31;33676;-66
2023/06/04 07:18:29;;;;;;;3.87;1.70;;;;;;;25.55;33.63;100051.09;4491761;31;33899;-68
2023/06/04 07:20:57;;;;;;;2.65;1.52;;;;;;;25.55;33.66;100053.00;4510489;31;33749;-66
2023/06/04 07:23:25;;;;;;;3.17;1.52;;;;;;;25.53;33.78;100053.25;4510469;31;33113;-66
2023/06/04 07:25:54;;;;;;;4.25;1.83;;;;;;;25.55;33.76;100061.19;4497270;31;32786;-66
2023/06/04 07:28:22;;;;;;;4.65;1.70;;;;;;;25.53;33.82;100066.91;4484409;31;33893;-66
2023/06/04 07:30:50;;;;;;;3.97;1.70;;;;;;;25.54;33.78;100062.25;4504383;31;33627;-66
2023/06/04 07:33:18;;;;;;;4.35;1.90;;;;;;;25.53;33.69;100061.44;4494458;32;34182;-67
2023/06/04 07:35:45;;;;;;;6.18;1.92;;;;;;;25.55;33.70;100061.19;4494472;32;34698;-68
2023/06/04 07:38:13;;;;;;;6.12;2.00;;;;;;;25.54;33.74;100060.38;4494331;32;33975;-67
2023/06/04 07:40:40;;;;;;;4.00;1.77;;;;;;;25.54;33.76;100057.63;4494373;32;33751;-67
2023/06/04 07:43:08;;;;;;;4.43;2.10;;;;;;;25.54;33.80;100063.09;4482050;32;33422;-66
2023/06/04 07:45:36;;;;;;;4.60;1.87;;;;;;;25.54;33.87;100063.09;4456138;32;34119;-66
2023/06/04 07:48:04;;;;;;;3.53;1.90;;;;;;;25.54;33.97;100060.38;4468634;32;34276;-66
2023/06/04 07:50:31;;;;;;;5.53;2.28;;;;;;;25.54;33.99;100063.09;4473938;32;33197;-67
2023/06/04 07:53:02;;;;;;;10.25;2.15;;;;;;;25.54;34.06;100065.81;4453754;32;33684;-70
2023/06/04 07:55:31;;;;;;;7.93;2.50;;;;;;;25.54;34.16;100060.38;4446494;32;33805;-67
2023/06/04 07:57:59;;;;;;;5.65;2.40;;;;;;;25.56;34.20;100073.81;4469841;32;34807;-69
2023/06/04 08:00:26;;;;;;;7.40;2.55;;;;;;;25.56;34.26;100074.63;4460714;32;33706;-69
2023/06/04 08:02:54;;;;;;;8.00;2.42;;;;;;;25.55;34.32;100072.94;4455335;32;33227;-68
2023/06/04 08:05:23;;;;;;;7.53;2.53;;;;;;;25.56;34.36;100069.19;4471130;32;32860;-67
2023/06/04 08:07:50;;;;;;;7.45;2.75;;;;;;;25.58;34.36;100068.94;4476792;32;34040;-67
2023/06/04 08:10:18;;;;;;;9.27;2.65;;;;;;;25.58;34.39;100072.50;4475110;32;33783;-69
2023/06/04 08:12:46;;;;;;;8.90;2.72;;;;;;;25.57;34.42;100070.84;4467693;32;33325;-69
2023/06/04 08:15:13;;;;;;;7.45;2.50;;;;;;;25.59;34.46;100079.62;4469017;32;33963;-67
2023/06/04 08:17:53;;;;;;;11.43;3.25;;;;;;;25.59;34.49;100071.41;4453286;32;34826;-70
2023/06/04 08:20:21;;;;;;;7.35;2.58;;;;;;;25.62;34.51;100078.31;4468769;32;34418;-69
2023/06/04 08:23:00;;;;;;;10.35;3.40;;;;;;;25.61;34.60;100072.03;4469932;32;33534;-70
2023/06/04 08:25:30;;;;;;;7.57;2.33;;;;;;;25.63;34.58;100078.09;4454715;32;33024;-68
2023/06/04 08:28:19;;;;;;;10.07;2.83;;;;;;;25.64;34.63;100070.72;4477119;32;33148;-69
2023/06/04 08:30:59;;;;;;;6.62;2.60;;;;;;;25.64;34.61;100076.19;4482805;32;33854;-69
2023/06/04 08:33:39;;;;;;;;;;;;;;;25.64;34.63;100076.19;4484097;32;33490;-67
2023/06/04 08:36:15;;;;;;;7.07;2.42;;;;;;;25.75;34.47;100088.22;4474268;32;34348;-68
2023/06/04 08:38:43;;;;;;;10.35;2.45;;;;;;;25.66;34.61;100091.28;4442444;32;33407;-70
2023/06/04 08:41:26;;;;;;;10.98;2.53;;;;;;;25.64;34.63;100082.47;4455293;32;33706;-68
2023/06/04 08:44:01;;;;;;;8.82;2.22;;;;;;;25.63;34.64;100089.00;4467846;32;32382;-68
2023/06/04 08:46:29;;;;;;;8.55;2.65;;;;;;;25.61;34.68;100082.97;4455075;32;32738;-70
2023/06/04 08:48:59;;;;;;;12.32;2.60;;;;;;;25.61;34.67;100084.87;4464006;32;33867;-67
2023/06/04 08:51:27;;;;;;;8.32;2.75;;;;;;;25.61;34.57;100079.41;4465950;32;33010;-68
2023/06/04 08:53:57;;;;;;;8.20;2.33;;;;;;;25.60;34.49;100078.56;4479672;32;34113;-68
2023/06/04 08:56:25;;;;;;;5.78;2.33;;;;;;;25.60;34.44;100080.44;4478723;32;33731;-70
2023/06/04 08:58:53;;;;;;;9.38;2.37;;;;;;;25.59;34.37;100074.16;4469278;32;33553;-68
2023/06/04 09:01:21;;;;;;;6.22;2.20;;;;;;;25.59;34.43;100076.88;4454902;32;34415;-71
2023/06/04 09:03:48;;;;;;;4.90;2.28;;;;;;;25.59;34.24;100084.25;4467076;32;33111;-69
2023/06/04 09:06:16;;;;;;;7.22;2.37;;;;;;;25.57;34.01;100084.50;4468863;32;33937;-68
2023/06/04 09:08:44;;;;;;;10.15;2.58;;;;;;;25.56;33.78;100082.84;4466111;32;33645;-67
2023/06/04 09:11:23;;;;;;;8.80;2.42;;;;;;;25.58;33.74;100082.59;4467816;32;34368;-68
2023/06/04 09:13:50;;;;;;;8.05;2.40;;;;;;;25.58;33.64;100077.97;4465869;32;33571;-68
2023/06/04 09:16:18;;;;;;;5.85;2.10;;;;;;;25.55;33.63;100081.16;4467519;32;34544;-68
2023/06/04 09:18:45;;;;;;;6.50;1.92;;;;;;;25.55;33.46;100074.84;4473104;32;33909;-69
2023/06/04 09:21:13;;;;;;;4.72;2.10;;;;;;;25.55;33.46;100074.84;4467255;32;33802;-69
2023/06/04 09:23:47;;;;;;;7.28;3.20;;;;;;;25.54;33.49;100081.37;4454714;32;33103;-68
2023/06/04 09:26:15;;;;;;;5.43;2.10;;;;;;;25.54;33.35;100078.66;4441754;32;34818;-69
2023/06/04 09:28:44;;;;;;;6.68;2.28;;;;;;;25.52;33.39;100084.37;4444842;32;33005;-66
2023/06/04 09:31:15;;;;;;;6.03;2.47;;;;;;;25.52;33.50;100078.91;4455392;32;33655;-69
2023/06/04 09:33:49;;;;;;;5.50;2.00;;;;;;;25.54;33.58;100081.37;4462946;32;32528;-67
2023/06/04 09:36:17;;;;;;;6.80;2.20;;;;;;;25.54;33.65;100087.69;4480092;32;33319;-70
2023/06/04 09:38:45;;;;;;;6.70;2.30;;;;;;;25.54;33.62;100081.37;4468979;32;34391;-70
2023/06/04 09:41:14;;;;;;;7.07;2.97;;;;;;;25.53;33.68;100083.28;4429233;32;32683;-68
2023/06/04 09:43:41;;;;;;;5.72;2.10;;;;;;;25.54;33.69;100087.69;4468202;32;33431;-70
2023/06/04 09:46:16;;;;;;;7.65;2.25;;;;;;;25.55;33.70;100086.62;4467544;32;33526;-71
2023/06/04 09:48:44;;;;;;;7.95;2.53;;;;;;;25.55;33.72;100094.81;4461464;32;32837;-70
2023/06/04 09:51:15;;;;;;;8.32;2.83;;;;;;;25.55;33.77;100094.81;4470089;32;33621;-70
2023/06/04 09:53:42;;;;;;;6.00;2.25;;;;;;;25.55;33.79;100094.81;4467007;32;31988;-71
2023/06/04 09:56:11;;;;;;;5.93;2.60;;;;;;;25.55;33.79;100093.97;4454014;32;33984;-70
2023/06/04 09:58:40;;;;;;;7.53;2.35;;;;;;;25.53;33.81;100094.22;4454148;32;33084;-70
2023/06/04 10:01:11;;;;;;;7.37;1.98;;;;;;;25.54;33.87;100093.16;4441894;32;32667;-71
2023/06/04 10:03:38;;;;;;;6.28;2.20;;;;;;;25.55;33.89;100097.53;4454018;32;33353;-70
2023/06/04 10:06:06;;;;;;;8.75;2.40;;;;;;;25.55;33.91;100093.97;4458759;32;33656;-68
2023/06/04 10:08:34;;;;;;;9.05;2.65;;;;;;;25.54;33.94;100100.53;4453888;32;33134;-68
2023/06/04 10:11:02;;;;;;;7.78;2.70;;;;;;;25.55;33.97;100096.72;4480238;32;33629;-68
2023/06/04 10:13:31;;;;;;;5.60;2.20;;;;;;;25.54;34.00;100100.53;4457482;32;32369;-68
2023/06/04 10:15:59;;;;;;;7.37;2.60;;;;;;;25.54;34.02;100098.63;4454532;32;33616;-71
2023/06/04 10:18:28;;;;;;;7.00;2.22;;;;;;;25.54;34.07;100101.34;4460996;32;32951;-67
2023/06/04 10:20:56;;;;;;;10.55;2.65;;;;;;;25.55;34.15;100103.00;4493645;31;34140;-70
2023/06/04 10:23:24;;;;;;;8.27;2.45;;;;;;;25.55;34.21;100093.97;4498201;31;33332;-69
2023/06/04 10:25:52;;;;;;;5.90;2.20;;;;;;;25.56;34.23;100093.78;4460966;32;34172;-69
2023/06/04 10:28:20;;;;;;;6.18;2.50;;;;;;;25.56;34.23;100088.31;4468041;32;33939;-69
2023/06/04 10:30:50;;;;;;;8.93;2.55;;;;;;;25.56;34.19;100084.75;4453794;32;33294;-70
2023/06/04 10:33:24;;;;;;;5.55;2.20;;;;;;;25.57;34.20;100087.22;4453077;32;33330;-68
2023/06/04 10:35:53;;;;;;;6.00;2.30;;;;;;;25.57;34.27;100094.59;4454374;32;33558;-69
2023/06/04 10:38:22;;;;;;;7.57;2.42;;;;;;;25.57;34.25;100098.16;4441126;32;32708;-70
2023/06/04 10:40:49;;;;;;;7.80;2.50;;;;;;;25.59;34.24;100095.19;4466712;32;34430;-68
2023/06/04 10:43:18;;;;;;;7.72;2.20;;;;;;;25.57;34.25;100092.69;4453965;32;32817;-72
2023/06/04 10:45:45;;;;;;;6.05;2.65;;;;;;;25.58;34.26;100090.78;4441060;32;33855;-71
2023/06/04 10:48:14;;;;;;;10.45;2.70;;;;;;;25.58;34.22;100093.53;4467893;32;33888;-65
2023/06/04 10:50:49;;;;;;;7.43;2.28;;;;;;;25.57;34.20;100089.13;4479081;32;34687;-62
2023/06/04 10:53:20;;;;;;;5.43;2.55;;;;;;;25.58;34.21;100088.88;4482527;32;34279;-64
2023/06/04 10:55:48;;;;;;;6.25;2.28;;;;;;;25.58;34.24;100088.06;4481439;32;34686;-62
2023/06/04 10:58:16;;;;;;;6.03;2.10;;;;;;;25.58;34.30;100088.88;4467018;32;34402;-62
2023/06/04 11:00:46;;;;;;;6.90;2.20;;;;;;;25.58;34.40;100088.88;4467019;32;34703;-64
2023/06/04 11:03:13;;;;;;;7.65;2.12;;;;;;;25.59;34.51;100093.28;4453320;32;34095;-64
2023/06/04 11:05:45;;;;;;;4.82;2.10;;;;;;;25.60;34.59;100094.09;4481346;32;33668;-64
2023/06/04 11:08:14;;;;;;;7.30;2.00;;;;;;;25.60;34.63;100094.09;4482717;32;34415;-63
2023/06/04 11:10:45;;;;;;;9.65;2.65;;;;;;;25.62;34.66;100087.34;4481916;32;34423;-64
2023/06/04 11:13:12;;;;;;;7.00;2.10;;;;;;;25.62;34.72;100092.00;4468529;32;34121;-64
2023/06/04 11:15:44;;;;;;;4.72;1.92;;;;;;;25.63;34.80;100090.91;4482139;32;33724;-64
2023/06/04 11:18:22;;;;;;;6.95;1.98;;;;;;;25.62;34.86;100083.78;4471070;32;34258;-67
2023/06/04 11:20:50;;;;;;;7.60;2.45;;;;;;;25.62;34.85;100084.63;4481636;32;33783;-70
2023/06/04 11:23:18;;;;;;;8.05;2.55;;;;;;;25.65;34.86;100086.91;4465596;32;34129;-67
2023/06/04 11:25:46;;;;;;;9.48;2.70;;;;;;;25.64;34.84;100082.47;4467625;32;33907;-69
2023/06/04 11:28:16;;;;;;;7.65;2.60;;;;;;;25.65;34.83;100084.16;4477717;32;33999;-70
2023/06/04 11:31:08;;;;;;;6.68;2.30;;;;;;;25.67;34.80;100084.75;4467808;32;34166;-68
2023/06/04 11:33:43;;;;;;;4.95;2.08;;;;;;;25.68;34.78;100085.59;4478480;32;33799;-67
2023/06/04 11:36:27;;;;;;;6.55;2.53;;;;;;;25.69;34.79;100082.62;4454878;32;32885;-67
2023/06/04 11:38:56;;;;;;;8.30;2.60;;;;;;;25.69;34.79;100084.50;4472095;32;33874;-66